Time;durP1;ratioP1;P1;durP2;ratioP2;P2;SDS_P1;SDS_P2;PMS_P1;PMS_P2;Temp;Humidity;BMP_temperature;BMP_pressure;BME280_temperature;BME280_humidity;BME280_pressure;Samples;Min_cycle;Max_cycle;Signal;HPM_P1;HPM_P2
2023/03/03 04:02:29;;;;;;;46.77;26.77;;;1.10;99.90;;;;;;5078372;23;20253;-77
2023/03/03 04:04:54;;;;;;;43.73;27.40;;;1.20;99.90;;;;;;4927474;29;20219;-77
2023/03/03 04:07:20;;;;;;;47.53;27.63;;;1.20;99.90;;;;;;4916025;29;20187;-76
2023/03/03 04:09:46;;;;;;;47.17;28.07;;;1.20;99.90;;;;;;4914843;29;20192;-77
2023/03/03 04:12:11;;;;;;;48.93;28.97;;;1.20;99.90;;;;;;4914699;29;20206;-77
2023/03/03 04:14:37;;;;;;;48.53;28.73;;;1.20;99.90;;;;;;4945364;23;20233;-81
2023/03/03 04:17:03;;;;;;;48.00;27.83;;;1.20;99.90;;;;;;4945146;29;20234;-81
2023/03/03 04:19:29;;;;;;;45.67;28.47;;;1.20;99.90;;;;;;4947854;29;20211;-82
2023/03/03 04:21:55;;;;;;;46.40;29.53;;;1.20;99.90;;;;;;4946160;29;20229;-81
2023/03/03 04:24:20;;;;;;;43.43;28.27;;;1.30;99.90;;;;;;4938725;29;20219;-81
2023/03/03 04:26:46;;;;;;;46.43;28.30;;;1.20;99.90;;;;;;4925529;29;20184;-81
2023/03/03 04:29:12;;;;;;;45.00;29.00;;;1.30;99.90;;;;;;4929812;29;20191;-81
2023/03/03 04:31:37;;;;;;;40.53;27.40;;;1.30;99.90;;;;;;4928020;29;20639;-81
2023/03/03 04:34:03;;;;;;;44.87;27.90;;;1.30;99.90;;;;;;4940741;28;20191;-83
2023/03/03 04:36:29;;;;;;;44.30;27.80;;;1.30;99.90;;;;;;4934009;28;20214;-81
2023/03/03 04:38:55;;;;;;;46.97;26.93;;;1.30;99.90;;;;;;4935478;29;20281;-84
2023/03/03 04:41:21;;;;;;;44.43;27.47;;;1.30;99.90;;;;;;4929681;29;20195;-83
2023/03/03 04:43:46;;;;;;;47.70;26.57;;;1.40;99.90;;;;;;4930208;29;20680;-82
2023/03/03 04:46:12;;;;;;;46.03;27.87;;;1.40;99.90;;;;;;4926810;29;20197;-81
2023/03/03 04:48:38;;;;;;;47.23;29.63;;;1.40;99.90;;;;;;4929452;29;20216;-81
2023/03/03 04:51:04;;;;;;;43.43;27.47;;;1.40;99.90;;;;;;4928543;29;20202;-83
2023/03/03 04:53:30;;;;;;;49.63;28.57;;;1.50;99.90;;;;;;4925867;29;20241;-83
2023/03/03 04:55:56;;;;;;;47.07;27.23;;;1.60;99.90;;;;;;4924779;29;20203;-81
2023/03/03 04:58:22;;;;;;;48.90;28.07;;;1.60;99.90;;;;;;4928518;29;20191;-83
2023/03/03 05:00:53;;;;;;;45.10;27.87;;;1.60;99.90;;;;;;4932391;29;20191;-84
2023/03/03 05:03:20;;;;;;;43.90;27.50;;;1.70;99.90;;;;;;4938355;29;20211;-83
2023/03/03 05:05:46;;;;;;;50.47;29.17;;;1.70;99.90;;;;;;4931346;29;20206;-83
2023/03/03 05:08:13;;;;;;;52.93;29.93;;;1.70;99.90;;;;;;4928199;29;20198;-83
2023/03/03 05:10:39;;;;;;;47.23;29.23;;;1.70;99.90;;;;;;4932037;29;20179;-82
2023/03/03 05:13:06;;;;;;;49.50;31.37;;;1.60;99.90;;;;;;4930829;29;20241;-83
2023/03/03 05:15:32;;;;;;;50.23;29.37;;;1.60;99.90;;;;;;4928923;29;20258;-83
2023/03/03 05:17:58;;;;;;;50.30;28.23;;;1.60;99.90;;;;;;4929310;29;20186;-83
2023/03/03 05:20:24;;;;;;;48.13;28.10;;;1.60;99.90;;;;;;4927997;29;20281;-83
2023/03/03 05:22:51;;;;;;;46.37;28.40;;;1.60;99.90;;;;;;4926290;29;20231;-83
2023/03/03 05:25:16;;;;;;;51.47;28.80;;;1.50;99.90;;;;;;4927690;29;20239;-82
2023/03/03 05:27:42;;;;;;;46.17;28.23;;;1.50;99.90;;;;;;4927152;29;20191;-83
2023/03/03 05:30:10;;;;;;;45.10;28.20;;;1.60;99.90;;;;;;4933299;29;20183;-83
2023/03/03 05:32:36;;;;;;;47.73;28.17;;;1.60;99.90;;;;;;4938125;29;20187;-84
2023/03/03 05:35:04;;;;;;;47.57;28.47;;;1.60;99.90;;;;;;4933052;29;20218;-83
2023/03/03 05:37:30;;;;;;;46.20;28.40;;;1.60;99.90;;;;;;4941632;28;20214;-82
2023/03/03 05:39:56;;;;;;;52.10;31.23;;;1.60;99.90;;;;;;4932046;28;20254;-83
2023/03/03 05:42:21;;;;;;;46.60;28.60;;;1.60;99.90;;;;;;4928334;29;20176;-83
2023/03/03 05:44:47;;;;;;;47.33;28.80;;;1.70;99.90;;;;;;4927187;29;20280;-83
2023/03/03 05:47:13;;;;;;;43.20;27.57;;;1.70;99.90;;;;;;4922439;29;20274;-83
2023/03/03 05:49:39;;;;;;;51.97;29.33;;;1.70;99.90;;;;;;4921512;29;20194;-82
2023/03/03 05:52:05;;;;;;;41.77;27.57;;;1.70;99.90;;;;;;4925195;29;20191;-83
2023/03/03 05:54:31;;;;;;;44.27;28.73;;;1.70;99.90;;;;;;4924704;29;20218;-84
2023/03/03 05:56:57;;;;;;;48.60;28.17;;;1.70;99.90;;;;;;4925061;29;20187;-83
2023/03/03 05:59:23;;;;;;;50.53;28.97;;;1.70;99.90;;;;;;4925390;29;20655;-84
2023/03/03 06:01:54;;;;;;;44.67;27.87;;;1.70;99.90;;;;;;4913250;29;20192;-83
2023/03/03 06:04:20;;;;;;;49.33;29.47;;;1.70;99.90;;;;;;4933679;28;20198;-82
2023/03/03 06:06:46;;;;;;;50.07;30.60;;;1.70;99.90;;;;;;4940430;28;20263;-80
2023/03/03 06:09:17;;;;;;;51.27;30.57;;;1.70;99.90;;;;;;4940210;28;20251;-82
2023/03/03 06:11:43;;;;;;;46.40;29.93;;;1.80;99.90;;;;;;4938410;28;20279;-83
2023/03/03 06:14:09;;;;;;;52.77;30.87;;;1.70;99.90;;;;;;4926672;29;20242;-84
2023/03/03 06:16:35;;;;;;;52.07;30.97;;;1.80;99.90;;;;;;4928985;29;20258;-84
2023/03/03 06:19:00;;;;;;;50.17;28.60;;;1.80;99.90;;;;;;4943360;29;20214;-84
2023/03/03 06:21:26;;;;;;;48.63;30.30;;;1.80;99.90;;;;;;4933923;29;20197;-72
2023/03/03 06:23:52;;;;;;;51.17;30.27;;;1.80;99.90;;;;;;4921145;29;20193;-71
2023/03/03 06:26:18;;;;;;;49.70;30.33;;;1.90;99.90;;;;;;4913622;29;20234;-72
2023/03/03 06:28:43;;;;;;;51.43;31.40;;;2.00;99.90;;;;;;4914755;29;20194;-71
2023/03/03 06:31:09;;;;;;;47.83;27.67;;;2.00;99.90;;;;;;4915656;29;20211;-72
2023/03/03 06:33:36;;;;;;;52.63;32.73;;;2.10;99.90;;;;;;4915417;29;20203;-71
2023/03/03 06:36:02;;;;;;;53.03;28.77;;;2.10;99.90;;;;;;4915082;29;20949;-72
2023/03/03 06:38:28;;;;;;;47.27;29.70;;;2.10;99.90;;;;;;4915595;29;20183;-71
2023/03/03 06:40:53;;;;;;;51.13;29.63;;;2.10;99.90;;;;;;4916066;29;20184;-71
2023/03/03 06:43:19;;;;;;;53.90;29.73;;;2.20;99.90;;;;;;4915378;29;20315;-72
2023/03/03 06:45:45;;;;;;;47.33;28.03;;;2.20;99.90;;;;;;4914958;29;20211;-72
2023/03/03 06:48:11;;;;;;;44.80;28.10;;;2.30;99.90;;;;;;4914416;29;20639;-71
2023/03/03 06:50:38;;;;;;;51.37;30.43;;;2.30;99.90;;;;;;4915058;29;20191;-72
2023/03/03 06:53:11;;;;;;;48.90;29.30;;;2.30;99.90;;;;;;4914283;29;20221;-71
2023/03/03 06:55:37;;;;;;;46.90;29.73;;;2.40;99.90;;;;;;4915079;29;20203;-71
2023/03/03 06:58:20;;;;;;;45.33;29.20;;;2.40;99.90;;;;;;4915232;29;20631;-71
2023/03/03 07:00:57;;;;;;;50.80;28.40;;;2.40;99.90;;;;;;4910180;29;20194;-72
2023/03/03 07:03:26;;;;;;;49.67;28.03;;;2.50;99.90;;;;;;4901246;29;20282;-71
2023/03/03 07:05:52;;;;;;;50.33;27.37;;;2.60;99.90;;;;;;4895875;29;20607;-71
2023/03/03 07:08:21;;;;;;;50.30;27.77;;;2.70;99.90;;;;;;4910684;29;20217;-72
2023/03/03 07:10:48;;;;;;;44.60;28.17;;;2.80;99.90;;;;;;4913184;29;20187;-72
2023/03/03 07:13:18;;;;;;;48.37;27.40;;;2.90;99.90;;;;;;4914855;29;20313;-72
2023/03/03 07:15:45;;;;;;;48.67;27.20;;;3.10;99.90;;;;;;4914287;29;20225;-72
2023/03/03 07:18:37;;;;;;;46.97;29.30;;;3.20;99.90;;;;;;4914957;29;20195;-72
2023/03/03 07:21:29;;;;;;;46.23;26.47;;;3.30;99.90;;;;;;4887638;29;20208;-72
2023/03/03 07:23:56;;;;;;;44.73;27.60;;;3.40;99.90;;;;;;4908297;29;20281;-72
2023/03/03 07:26:27;;;;;;;46.63;27.73;;;3.50;99.90;;;;;;4917280;29;20194;-71
2023/03/03 07:28:59;;;;;;;47.73;29.63;;;3.60;99.90;;;;;;4933317;29;20186;-71
2023/03/03 07:31:27;;;;;;;47.73;35.33;;;3.60;99.90;;;;;;4932566;29;20193;-68
2023/03/03 07:33:53;;;;;;;103.53;63.67;;;3.50;99.90;;;;;;4919225;29;20723;-67
2023/03/03 07:36:30;;;;;;;90.13;55.70;;;3.60;99.90;;;;;;4914039;29;20179;-71
2023/03/03 07:39:02;;;;;;;51.97;35.30;;;3.60;99.90;;;;;;4914769;29;20186;-70
2023/03/03 07:41:29;;;;;;;48.13;33.10;;;3.50;99.90;;;;;;4913851;29;20183;-71
2023/03/03 07:44:12;;;;;;;49.87;32.27;;;3.50;99.90;;;;;;4914897;29;20183;-71
2023/03/03 07:46:47;;;;;;;49.27;31.00;;;3.40;99.90;;;;;;4913874;29;20191;-70
2023/03/03 07:49:23;;;;;;;57.73;35.83;;;3.30;99.90;;;;;;4913519;29;20222;-70
2023/03/03 07:51:56;;;;;;;50.30;30.30;;;3.30;99.90;;;;;;4915138;29;20190;-70
2023/03/03 07:54:42;;;;;;;54.80;32.37;;;3.40;99.90;;;;;;4914461;29;20223;-71
2023/03/03 07:57:11;;;;;;;51.53;30.20;;;3.30;99.90;;;;;;4915115;29;20533;-71
2023/03/03 07:59:40;;;;;;;50.23;29.73;;;3.30;99.90;;;;;;4914707;29;20182;-71
2023/03/03 08:02:22;;;;;;;58.27;30.97;;;3.30;99.90;;;;;;4915300;29;20195;-71
2023/03/03 08:04:51;;;;;;;53.37;28.93;;;3.40;99.90;;;;;;4918165;29;20219;-70
2023/03/03 08:07:18;;;;;;;47.63;28.23;;;3.50;99.90;;;;;;4919264;29;20307;-71
2023/03/03 08:09:57;;;;;;;48.40;29.40;;;3.70;99.90;;;;;;4918879;29;20275;-71
2023/03/03 08:12:43;;;;;;;53.40;29.53;;;4.00;99.90;;;;;;4917912;29;20190;-71
2023/03/03 08:15:31;;;;;;;52.00;31.77;;;4.40;99.90;;;;;;4920772;29;20233;-71
2023/03/03 08:18:00;;;;;;;55.30;31.13;;;4.70;99.90;;;;;;4918793;29;20239;-71
2023/03/03 08:20:42;;;;;;;53.80;29.73;;;5.10;99.90;;;;;;4919070;29;20353;-70
2023/03/03 08:23:07;;;;;;;52.40;30.57;;;5.70;99.90;;;;;;4918329;29;20231;-70
2023/03/03 08:25:33;;;;;;;47.93;29.73;;;6.20;99.90;;;;;;4917588;29;20195;-71
2023/03/03 08:27:59;;;;;;;48.67;30.07;;;6.90;99.90;;;;;;4916865;29;20215;-72
2023/03/03 08:30:24;;;;;;;47.50;30.90;;;7.40;99.90;;;;;;4917941;29;20647;-71
2023/03/03 08:32:50;;;;;;;48.20;33.17;;;7.90;99.90;;;;;;4917049;29;20273;-72
2023/03/03 08:35:16;;;;;;;54.20;31.47;;;8.20;99.90;;;;;;4917553;29;20214;-71
2023/03/03 08:37:41;;;;;;;43.87;28.77;;;8.40;99.90;;;;;;4918159;29;20682;-71
2023/03/03 08:40:08;;;;;;;44.90;27.67;;;8.50;99.90;;;;;;4917441;29;20176;-72
2023/03/03 08:42:34;;;;;;;44.13;28.33;;;8.40;99.90;;;;;;4917848;29;20188;-71
2023/03/03 08:44:59;;;;;;;45.57;29.10;;;8.60;99.90;;;;;;4917428;29;20206;-71
2023/03/03 08:47:25;;;;;;;44.60;28.37;;;8.60;99.90;;;;;;4917018;29;20294;-71
2023/03/03 08:49:53;;;;;;;48.37;32.07;;;8.70;99.90;;;;;;4916428;29;20187;-71
2023/03/03 08:52:19;;;;;;;50.30;30.40;;;9.10;99.90;;;;;;4916549;29;20286;-71
2023/03/03 08:54:44;;;;;;;51.33;32.93;;;9.30;99.90;;;;;;4916954;29;20323;-71
2023/03/03 08:57:10;;;;;;;48.93;30.40;;;9.20;99.90;;;;;;4916185;29;20238;-73
2023/03/03 08:59:37;;;;;;;46.37;30.23;;;8.80;99.90;;;;;;4917432;29;20186;-79
2023/03/03 09:02:07;;;;;;;50.60;31.43;;;8.70;99.90;;;;;;4917740;29;20185;-76
2023/03/03 09:04:33;;;;;;;50.57;32.53;;;8.30;99.90;;;;;;4917208;29;20286;-75
2023/03/03 09:07:02;;;;;;;51.63;31.53;;;8.10;99.90;;;;;;4917349;29;20238;-75
2023/03/03 09:09:29;;;;;;;49.93;30.47;;;8.20;99.90;;;;;;4917555;29;20192;-76
2023/03/03 09:12:06;;;;;;;49.80;29.73;;;8.40;99.90;;;;;;4917713;29;20187;-67
2023/03/03 09:14:32;;;;;;;48.73;31.57;;;8.60;99.90;;;;;;4916347;29;20218;-70
2023/03/03 09:16:57;;;;;;;46.77;32.50;;;8.90;99.90;;;;;;4917494;29;20182;-67
2023/03/03 09:19:32;;;;;;;54.27;33.40;;;8.80;99.90;;;;;;4909791;29;20687;-68
2023/03/03 09:22:21;;;;;;;47.97;31.97;;;8.80;99.90;;;;;;4898847;29;20183;-67
2023/03/03 09:24:49;;;;;;;50.87;32.17;;;9.10;99.90;;;;;;4901970;29;20587;-75
2023/03/03 09:27:27;;;;;;;50.73;33.30;;;9.40;99.90;;;;;;4916771;29;20656;-74
2023/03/03 09:29:53;;;;;;;53.93;34.27;;;9.40;99.90;;;;;;4915485;29;20199;-75
2023/03/03 09:32:31;;;;;;;54.50;36.83;;;9.10;99.90;;;;;;4916820;29;20274;-74
2023/03/03 09:34:57;;;;;;;52.27;34.17;;;8.90;99.90;;;;;;4916247;29;20218;-75
2023/03/03 09:37:23;;;;;;;59.23;36.83;;;9.10;99.90;;;;;;4916825;29;20187;-75
2023/03/03 09:39:52;;;;;;;59.03;35.03;;;9.10;99.90;;;;;;4915142;29;20183;-75
2023/03/03 09:42:32;;;;;;;53.33;36.13;;;9.00;99.90;;;;;;4915227;29;20183;-75
2023/03/03 09:45:19;;;;;;;50.93;34.70;;;9.00;99.90;;;;;;4916233;29;20266;-74
2023/03/03 09:47:59;;;;;;;58.03;44.00;;;9.10;99.90;;;;;;4916509;29;20183;-75
2023/03/03 09:50:58;;;;;;;55.90;36.40;;;9.30;99.90;;;;;;4917010;29;20663;-74
2023/03/03 09:53:49;;;;;;;54.20;35.03;;;9.60;99.90;;;;;;4896046;29;20234;-75
2023/03/03 09:56:48;;;;;;;54.93;37.27;;;10.00;99.90;;;;;;4896571;29;20180;-74
2023/03/03 09:59:24;;;;;;;48.83;35.93;;;9.90;99.90;;;;;;4901873;29;20217;-74
2023/03/03 10:02:24;;;;;;;50.73;35.37;;;10.10;99.90;;;;;;4914509;29;20278;-75
2023/03/03 10:04:50;;;;;;;54.53;35.00;;;10.30;99.90;;;;;;4884439;29;20215;-75
2023/03/03 10:07:34;;;;;;;50.43;34.30;;;10.30;99.90;;;;;;4916654;29;20194;-76
2023/03/03 10:10:41;;;;;;;49.57;32.47;;;10.40;99.90;;;;;;4915950;29;20183;-76
2023/03/03 10:13:44;;;;;;;56.40;34.67;;;10.40;99.90;;;;;;4914623;29;20677;-75
2023/03/03 10:16:35;;;;;;;51.47;32.70;;;10.30;99.90;;;;;;4921034;23;20291;-78
2023/03/03 10:19:06;;;;;;;53.87;30.13;;;10.20;99.90;;;;;;4896859;29;20190;-77
2023/03/03 10:21:57;;;;;;;53.87;31.77;;;10.40;99.90;;;;;;4897152;29;20191;-77
2023/03/03 10:24:45;;;;;;;47.50;32.33;;;10.30;99.90;;;;;;4896541;29;20204;-77
2023/03/03 10:27:23;;;;;;;50.40;31.97;;;10.20;99.90;;;;;;4896962;29;20192;-77
2023/03/03 10:29:58;;;;;;;46.77;31.80;;;10.20;99.90;;;;;;4898833;29;20606;-77
2023/03/03 10:32:44;;;;;;;46.27;31.53;;;10.10;99.90;;;;;;4910830;29;20198;-78
2023/03/03 10:35:27;;;;;;;46.07;31.27;;;10.30;99.90;;;;;;4895239;29;20695;-77
2023/03/03 10:38:13;;;;;;;48.50;31.50;;;10.80;99.90;;;;;;4896927;29;20188;-78
2023/03/03 10:41:06;;;;;;;43.83;31.13;;;11.10;99.90;;;;;;4896208;29;20188;-77
2023/03/03 10:43:50;;;;;;;46.40;31.83;;;11.20;99.90;;;;;;4876702;29;20203;-76
2023/03/03 10:46:31;;;;;;;51.13;32.90;;;11.50;99.90;;;;;;4877676;29;20256;-76
2023/03/03 10:49:16;;;;;;;50.93;33.13;;;11.10;99.90;;;;;;4879803;29;20191;-76
2023/03/03 10:52:06;;;;;;;50.00;34.57;;;11.00;99.90;;;;;;4878180;29;20251;-76
2023/03/03 10:54:55;;;;;;;47.67;32.73;;;11.10;99.90;;;;;;4899593;29;20246;-76
2023/03/03 10:57:55;;;;;;;43.80;29.30;;;11.90;99.90;;;;;;4913825;29;20663;-76
2023/03/03 11:00:30;;;;;;;47.17;29.97;;;12.00;99.90;;;;;;4902191;29;20526;-76
2023/03/03 11:03:16;;;;;;;48.63;31.53;;;12.40;99.90;;;;;;4894851;29;20191;-76
2023/03/03 11:06:00;;;;;;;59.60;36.37;;;12.60;99.90;;;;;;4895729;29;20210;-75
2023/03/03 11:08:37;;;;;;;49.73;29.40;;;12.70;99.90;;;;;;4913314;29;20186;-76
2023/03/03 11:11:16;;;;;;;55.50;30.30;;;13.10;99.90;;;;;;4896531;29;20192;-76
2023/03/03 11:13:57;;;;;;;51.83;30.33;;;13.40;99.90;;;;;;4896200;29;20219;-75
2023/03/03 11:16:51;;;;;;;43.07;29.30;;;13.70;99.90;;;;;;4894346;29;20219;-76
2023/03/03 11:19:17;;;;;;;41.53;31.63;;;14.90;99.90;;;;;;4895532;29;20180;-76
2023/03/03 11:21:52;;;;;;;45.73;29.83;;;15.90;97.80;;;;;;4896239;29;20644;-77
2023/03/03 11:24:33;;;;;;;37.87;27.57;;;17.40;93.10;;;;;;4894288;29;20187;-75
2023/03/03 11:27:14;;;;;;;39.33;28.37;;;18.00;86.80;;;;;;4894680;29;20188;-76
2023/03/03 11:30:02;;;;;;;46.03;31.73;;;17.60;83.40;;;;;;4895913;29;20190;-76
2023/03/03 11:33:03;;;;;;;42.10;31.00;;;16.40;84.20;;;;;;4875992;29;20643;-76
2023/03/03 11:35:44;;;;;;;39.07;28.70;;;15.50;88.60;;;;;;4893356;29;20234;-76
2023/03/03 11:38:36;;;;;;;45.63;33.17;;;15.40;88.10;;;;;;4899362;29;20230;-76
2023/03/03 11:41:07;;;;;;;33.93;26.53;;;15.10;88.40;;;;;;4890838;29;20203;-76
2023/03/03 11:43:51;;;;;;;39.40;26.43;;;14.60;90.50;;;;;;4895400;29;20403;-76
2023/03/03 11:46:39;;;;;;;37.40;26.80;;;14.40;90.40;;;;;;4898223;29;20298;-76
2023/03/03 11:49:24;;;;;;;33.40;26.20;;;14.40;88.90;;;;;;4860804;29;20823;-76
2023/03/03 11:52:17;;;;;;;35.90;25.10;;;14.20;90.20;;;;;;4899773;29;20187;-75
2023/03/03 11:54:55;;;;;;;34.97;25.83;;;14.60;90.50;;;;;;4899058;29;20326;-76
2023/03/03 11:57:26;;;;;;;33.63;24.60;;;15.70;87.50;;;;;;4899831;29;20279;-76
2023/03/03 12:00:25;;;;;;;29.60;23.87;;;15.60;87.20;;;;;;4898183;29;20187;-77
2023/03/03 12:03:09;;;;;;;32.33;25.53;;;14.50;87.00;;;;;;4897709;29;20188;-77
2023/03/03 12:05:45;;;;;;;38.20;27.27;;;14.90;88.70;;;;;;4899198;29;20262;-75
2023/03/03 12:08:17;;;;;;;34.03;25.83;;;15.20;87.40;;;;;;4898713;29;20183;-75
2023/03/03 12:11:02;;;;;;;35.10;26.70;;;15.10;88.10;;;;;;4904013;29;20191;-76
2023/03/03 12:13:50;;;;;;;32.30;26.20;;;15.30;87.80;;;;;;4892987;29;20216;-76
2023/03/03 12:16:51;;;;;;;36.23;31.83;;;15.90;86.20;;;;;;4878886;29;20299;-77
2023/03/03 12:19:20;;;;;;;37.67;32.23;;;15.90;83.70;;;;;;4880410;29;20601;-76
2023/03/03 12:21:46;;;;;;;39.33;32.47;;;16.10;85.50;;;;;;4897351;29;20191;-78
2023/03/03 12:24:21;;;;;;;46.53;35.67;;;15.50;84.70;;;;;;4896873;29;20617;-78
2023/03/03 12:27:09;;;;;;;42.77;29.90;;;14.60;86.80;;;;;;4898570;29;20226;-78
2023/03/03 12:29:35;;;;;;;37.50;28.77;;;15.10;88.40;;;;;;4898134;29;20188;-77
2023/03/03 12:32:34;;;;;;;37.23;29.73;;;15.40;86.60;;;;;;4898244;29;20212;-77
2023/03/03 12:35:06;;;;;;;39.03;29.07;;;15.50;85.60;;;;;;4901245;29;20206;-78
2023/03/03 12:38:10;;;;;;;37.27;31.23;;;15.70;84.60;;;;;;4878954;29;20672;-67
2023/03/03 12:40:59;;;;;;;41.60;32.60;;;16.60;84.60;;;;;;4874502;29;20251;-66
2023/03/03 12:43:49;;;;;;;41.53;28.43;;;17.60;81.30;;;;;;4893254;29;20184;-67
2023/03/03 12:46:24;;;;;;;36.07;28.33;;;16.40;79.90;;;;;;4896598;29;20215;-66
2023/03/03 12:48:50;;;;;;;40.70;27.40;;;16.40;80.80;;;;;;4896641;29;20194;-76
2023/03/03 12:51:43;;;;;;;38.20;31.50;;;16.40;81.50;;;;;;4896571;29;20191;-76
2023/03/03 12:54:18;;;;;;;33.73;25.67;;;17.00;84.90;;;;;;4913915;29;20245;-77
2023/03/03 12:56:53;;;;;;;38.73;26.80;;;18.20;77.10;;;;;;4917292;29;20191;-76
2023/03/03 12:59:31;;;;;;;39.17;27.43;;;17.60;76.40;;;;;;4912968;29;20182;-75
2023/03/03 13:02:31;;;;;;;38.40;27.37;;;18.00;76.40;;;;;;4919377;29;20176;-86
2023/03/03 13:05:14;;;;;;;39.37;28.80;;;19.10;74.00;;;;;;4911223;29;20234;-83
2023/03/03 13:08:01;;;;;;;40.07;27.87;;;19.90;72.10;;;;;;4906539;29;20199;-76
2023/03/03 13:11:13;;;;;;;41.00;27.97;;;20.60;69.50;;;;;;4897313;29;20243;-76
2023/03/03 13:14:01;;;;;;;37.63;27.23;;;20.20;67.90;;;;;;4877167;29;20641;-75
2023/03/03 13:16:32;;;;;;;27.53;22.20;;;20.10;69.30;;;;;;4900582;29;20214;-75
2023/03/03 13:19:10;;;;;;;35.97;25.87;;;18.70;64.50;;;;;;4898471;29;20544;-76
2023/03/03 13:21:57;;;;;;;37.87;27.47;;;16.90;72.70;;;;;;4878722;29;20252;-76
2023/03/03 13:24:40;;;;;;;40.07;25.47;;;16.10;76.30;;;;;;4882165;29;20222;-75
2023/03/03 13:27:12;;;;;;;31.97;21.83;;;15.90;77.90;;;;;;4897552;29;20647;-76
2023/03/03 13:29:49;;;;;;;29.20;21.30;;;16.10;74.40;;;;;;4897157;29;20184;-76
2023/03/03 13:32:22;;;;;;;28.33;21.03;;;17.10;72.90;;;;;;4897197;29;20195;-76
2023/03/03 13:35:02;;;;;;;29.20;23.07;;;17.60;71.90;;;;;;4895578;29;20212;-76
2023/03/03 13:37:33;;;;;;;32.97;22.00;;;17.50;70.30;;;;;;4896211;29;20203;-75
2023/03/03 13:40:28;;;;;;;27.40;21.23;;;17.70;69.80;;;;;;4895833;29;20262;-76
2023/03/03 13:43:21;;;;;;;30.37;22.47;;;18.10;66.60;;;;;;4895369;29;20202;-75
2023/03/03 13:45:57;;;;;;;27.40;20.63;;;17.30;69.00;;;;;;4893441;29;20223;-76
2023/03/03 13:48:46;;;;;;;30.93;20.30;;;17.10;68.20;;;;;;4896953;29;20197;-76
2023/03/03 13:51:50;;;;;;;25.70;21.00;;;17.70;67.80;;;;;;4916177;29;20176;-76
2023/03/03 13:54:43;;;;;;;28.20;21.47;;;17.30;67.00;;;;;;4896288;29;20191;-76
2023/03/03 13:57:34;;;;;;;27.90;22.33;;;17.70;70.10;;;;;;4892592;29;20191;-76
2023/03/03 14:00:06;;;;;;;29.93;22.33;;;17.90;68.00;;;;;;4884859;29;20658;-77
2023/03/03 14:02:53;;;;;;;31.00;21.73;;;17.40;68.70;;;;;;4899636;29;20178;-76
2023/03/03 14:05:40;;;;;;;30.77;22.37;;;16.30;72.00;;;;;;4914247;29;20238;-76
2023/03/03 14:20:38;;;;;;;23.20;18.30;;;14.20;73.60;;;;;;4923992;29;20226;-73
2023/03/03 14:23:13;;;;;;;29.70;18.93;;;13.90;74.40;;;;;;4933152;29;20193;-73
2023/03/03 14:26:04;;;;;;;30.30;21.00;;;13.70;74.90;;;;;;4934490;29;20689;-72
2023/03/03 14:28:39;;;;;;;27.87;22.87;;;13.10;77.50;;;;;;4930644;29;20978;-68
2023/03/03 14:31:25;;;;;;;30.53;23.93;;;13.10;77.70;;;;;;4914191;29;20182;-68
2023/03/03 14:34:20;;;;;;;29.10;21.80;;;13.70;77.20;;;;;;4947289;23;20242;-67
2023/03/03 14:36:46;;;;;;;25.03;20.07;;;14.20;74.60;;;;;;4934094;29;20183;-67
2023/03/03 14:39:37;;;;;;;26.30;19.70;;;14.40;74.10;;;;;;4934113;29;20179;-69
2023/03/03 14:42:34;;;;;;;31.20;23.90;;;14.20;73.20;;;;;;4929773;29;20250;-67
2023/03/03 14:45:03;;;;;;;31.27;24.67;;;13.80;75.70;;;;;;4914107;29;20298;-69
2023/03/03 14:47:29;;;;;;;28.73;24.13;;;13.60;76.20;;;;;;4914072;29;20183;-69
2023/03/03 14:50:02;;;;;;;34.13;25.33;;;13.70;76.40;;;;;;4915124;29;20235;-69
2023/03/03 14:52:31;;;;;;;30.67;22.83;;;14.20;75.30;;;;;;4915251;29;20183;-68
2023/03/03 14:55:00;;;;;;;28.00;22.70;;;14.20;75.90;;;;;;4913967;29;20590;-69
2023/03/03 14:57:39;;;;;;;28.93;21.03;;;14.10;75.60;;;;;;4915276;29;20182;-69
2023/03/03 15:00:31;;;;;;;27.97;21.30;;;13.80;74.90;;;;;;4913563;29;20186;-68
2023/03/03 15:03:03;;;;;;;27.27;22.20;;;13.50;76.00;;;;;;4914928;29;20211;-68
2023/03/03 15:05:31;;;;;;;32.63;25.07;;;13.10;77.50;;;;;;4914902;29;20221;-68
2023/03/03 15:08:03;;;;;;;28.67;24.07;;;13.10;79.20;;;;;;4913809;29;20534;-69
2023/03/03 15:10:34;;;;;;;26.90;22.37;;;12.80;79.40;;;;;;4914672;29;20320;-69
2023/03/03 15:13:18;;;;;;;26.07;23.00;;;12.70;79.60;;;;;;4914662;29;20207;-69
2023/03/03 15:16:03;;;;;;;27.67;21.60;;;12.50;79.90;;;;;;4913645;29;20187;-69
2023/03/03 15:18:32;;;;;;;25.87;19.43;;;12.30;80.50;;;;;;4913412;29;20230;-69
2023/03/03 15:21:08;;;;;;;26.07;18.43;;;12.30;81.70;;;;;;4913833;29;20677;-69
2023/03/03 15:23:46;;;;;;;28.23;19.23;;;12.40;82.40;;;;;;4915142;29;20734;-69
2023/03/03 15:26:20;;;;;;;28.87;19.73;;;12.50;81.20;;;;;;4914658;29;20189;-69
2023/03/03 15:29:01;;;;;;;27.73;18.97;;;12.60;80.60;;;;;;4915493;29;20559;-69
2023/03/03 15:31:35;;;;;;;30.87;19.50;;;12.50;79.60;;;;;;4915295;29;20687;-69
2023/03/03 15:34:25;;;;;;;26.97;18.40;;;12.20;80.70;;;;;;4914625;29;20313;-69
2023/03/03 15:37:20;;;;;;;26.67;19.10;;;12.10;81.40;;;;;;4913747;29;20194;-69
2023/03/03 15:39:58;;;;;;;30.00;18.77;;;11.70;81.70;;;;;;4897518;29;20205;-68
2023/03/03 15:42:34;;;;;;;32.53;20.87;;;11.60;83.10;;;;;;4913625;29;20191;-69
2023/03/03 15:45:21;;;;;;;28.17;20.40;;;11.70;83.60;;;;;;4914321;29;20222;-69
2023/03/03 15:48:06;;;;;;;29.07;20.60;;;11.70;84.20;;;;;;4914669;29;20187;-69
2023/03/03 15:50:34;;;;;;;34.83;22.57;;;11.50;84.70;;;;;;4913487;29;20246;-69
2023/03/03 15:53:18;;;;;;;30.83;22.17;;;11.40;86.00;;;;;;4914366;29;20380;-69
2023/03/03 15:56:10;;;;;;;33.40;22.13;;;11.40;86.20;;;;;;4914847;29;20226;-69
2023/03/03 15:58:45;;;;;;;31.53;21.13;;;11.40;85.70;;;;;;4914328;29;20194;-69
2023/03/03 16:01:22;;;;;;;33.63;22.17;;;11.40;85.00;;;;;;4914458;29;20193;-69
2023/03/03 16:04:19;;;;;;;29.97;21.80;;;11.30;85.60;;;;;;4914301;29;20265;-69
2023/03/03 16:07:00;;;;;;;31.50;22.23;;;11.40;86.20;;;;;;4914540;29;20291;-69
2023/03/03 16:09:35;;;;;;;29.30;21.97;;;11.30;85.80;;;;;;4914125;29;20565;-69
2023/03/03 16:12:14;;;;;;;37.00;26.23;;;11.30;86.00;;;;;;4914614;29;20187;-69
2023/03/03 16:15:10;;;;;;;29.43;23.33;;;11.30;88.50;;;;;;4914555;29;20234;-68
2023/03/03 16:18:02;;;;;;;32.43;23.63;;;11.20;89.10;;;;;;4914436;29;20656;-68
2023/03/03 16:20:39;;;;;;;30.87;24.03;;;11.10;90.10;;;;;;4914221;29;20191;-68
2023/03/03 16:23:35;;;;;;;33.80;24.87;;;11.30;90.00;;;;;;4915327;29;20690;-68
2023/03/03 16:26:12;;;;;;;29.17;23.53;;;11.50;89.50;;;;;;4918286;29;20601;-68
2023/03/03 16:29:02;;;;;;;32.57;22.97;;;11.40;89.70;;;;;;4917633;29;20418;-68
2023/03/03 16:31:51;;;;;;;31.47;22.83;;;11.60;89.90;;;;;;4912420;29;20202;-68
2023/03/03 16:34:42;;;;;;;36.73;23.37;;;11.70;89.60;;;;;;4916474;29;20317;-68
2023/03/03 16:37:31;;;;;;;32.00;23.70;;;11.60;90.20;;;;;;4917892;29;20294;-68
2023/03/03 16:40:22;;;;;;;31.93;24.07;;;11.60;90.80;;;;;;4917313;29;20223;-68
2023/03/03 16:42:56;;;;;;;30.73;25.10;;;11.20;91.10;;;;;;4917677;29;20291;-68
2023/03/03 16:45:37;;;;;;;34.97;22.27;;;10.70;92.20;;;;;;4917502;29;20233;-68
2023/03/03 16:48:28;;;;;;;27.77;20.57;;;10.10;93.50;;;;;;4916791;29;20186;-67
2023/03/03 16:51:12;;;;;;;34.17;20.80;;;9.70;94.70;;;;;;4916165;29;20195;-68
2023/03/03 16:53:51;;;;;;;32.10;22.30;;;9.20;96.40;;;;;;4917611;29;20214;-68
2023/03/03 16:56:32;;;;;;;33.67;22.87;;;8.70;97.60;;;;;;4917374;29;20191;-68
2023/03/03 16:59:19;;;;;;;37.37;29.63;;;8.50;99.00;;;;;;4917309;29;20608;-68
2023/03/03 17:02:19;;;;;;;42.13;30.40;;;8.20;99.90;;;;;;4917604;29;20600;-68
2023/03/03 17:04:49;;;;;;;37.30;27.27;;;8.00;99.90;;;;;;4917092;29;20253;-68
2023/03/03 17:07:22;;;;;;;37.10;27.63;;;7.90;99.90;;;;;;4916049;29;20649;-68
2023/03/03 17:09:59;;;;;;;35.07;27.43;;;7.70;99.90;;;;;;4916862;29;20218;-68
2023/03/03 17:12:51;;;;;;;49.30;33.63;;;7.50;99.90;;;;;;4917071;29;20226;-67
2023/03/03 17:15:37;;;;;;;39.77;30.87;;;7.30;99.90;;;;;;4916936;29;20190;-68
2023/03/03 17:18:19;;;;;;;40.90;27.93;;;7.20;99.90;;;;;;4931135;29;20194;-68
2023/03/03 17:20:53;;;;;;;36.63;27.83;;;7.20;99.90;;;;;;4929561;29;20281;-68
2023/03/03 17:23:37;;;;;;;32.37;24.00;;;7.10;99.90;;;;;;4924849;29;20242;-68
2023/03/03 17:26:16;;;;;;;34.43;23.93;;;7.00;99.90;;;;;;4916483;29;20575;-68
2023/03/03 17:28:56;;;;;;;33.37;22.93;;;6.90;99.90;;;;;;4915387;29;20230;-68
2023/03/03 17:31:31;;;;;;;34.70;23.33;;;6.80;99.90;;;;;;4916869;29;20610;-68
2023/03/03 17:34:25;;;;;;;36.70;25.30;;;6.70;99.90;;;;;;4915300;29;20225;-68